createdAt,value
2023-05-17T00:02:31.874Z,0
2023-05-17T00:08:51.759Z,0
2023-05-17T00:15:14.931Z,0
2023-05-17T00:21:34.764Z,0
2023-05-17T00:27:57.830Z,0
2023-05-17T00:34:17.806Z,0
2023-05-17T00:40:40.802Z,0
2023-05-17T00:47:00.757Z,0
2023-05-17T00:53:23.877Z,0
2023-05-17T00:59:43.757Z,0
2023-05-17T01:06:06.831Z,0
2023-05-17T01:12:26.927Z,0
2023-05-17T01:18:49.943Z,0
2023-05-17T01:25:09.819Z,0
2023-05-17T01:31:32.890Z,0
2023-05-17T01:37:52.818Z,0
2023-05-17T01:44:15.808Z,0
2023-05-17T01:50:35.850Z,0
2023-05-17T01:56:58.827Z,0
2023-05-17T02:03:18.844Z,0
2023-05-17T02:09:41.925Z,0
2023-05-17T02:16:01.844Z,0
2023-05-17T02:22:24.763Z,0
2023-05-17T02:28:44.940Z,0
2023-05-17T02:35:07.850Z,0
2023-05-17T02:41:27.761Z,0
2023-05-17T02:47:51.219Z,0
2023-05-17T02:54:10.779Z,0
2023-05-17T03:00:33.905Z,0
2023-05-17T03:06:53.856Z,0
2023-05-17T03:29:59.766Z,0
2023-05-17T03:36:22.756Z,0
2023-05-17T03:42:42.755Z,0
2023-05-17T03:49:06.954Z,0
2023-05-17T03:55:27.021Z,0
2023-05-17T04:01:49.773Z,0
2023-05-17T04:08:09.888Z,5.62
2023-05-17T04:14:32.771Z,5.62
2023-05-17T04:20:52.857Z,5.62
2023-05-17T04:27:16.056Z,5.62
2023-05-17T04:33:35.873Z,5.62
2023-05-17T04:39:58.847Z,11.25
2023-05-17T04:46:18.985Z,11.25
2023-05-17T04:52:41.749Z,16.88
2023-05-17T04:59:02.001Z,11.25
2023-05-17T05:05:24.777Z,11.25
2023-05-17T05:11:44.761Z,11.25
2023-05-17T05:18:07.818Z,22.5
2023-05-17T05:24:27.921Z,16.88
2023-05-17T05:30:50.926Z,28.12
2023-05-17T05:37:10.820Z,33.75
2023-05-17T05:43:33.944Z,16.88
2023-05-17T05:49:53.749Z,28.12
2023-05-17T05:56:16.858Z,39.38
2023-05-17T06:02:36.995Z,33.75
2023-05-17T06:08:59.964Z,5.62
2023-05-17T06:15:19.802Z,11.25
2023-05-17T06:21:43.031Z,5.62
2023-05-17T06:28:02.856Z,22.5
2023-05-17T06:34:25.951Z,11.25
2023-05-17T06:40:45.961Z,22.5
2023-05-17T06:47:08.846Z,56.25
2023-05-17T06:53:28.836Z,67.5
2023-05-17T06:59:51.896Z,67.5
2023-05-17T07:06:11.745Z,61.88
2023-05-17T07:12:34.749Z,45
2023-05-17T07:18:55.055Z,56.25
2023-05-17T07:25:17.751Z,73.12
2023-05-17T07:31:37.750Z,61.88
2023-05-17T07:38:01.016Z,73.12
2023-05-17T07:44:20.780Z,56.25
2023-05-17T07:50:43.878Z,61.88
2023-05-17T07:57:04.778Z,50.62
2023-05-17T08:03:27.820Z,50.62
2023-05-17T08:09:47.799Z,56.25
2023-05-17T08:16:13.966Z,84.38
2023-05-17T08:22:30.800Z,84.38
2023-05-17T08:45:18.873Z,73.12
2023-05-17T08:51:41.751Z,95.62
2023-05-17T08:58:01.774Z,95.62
2023-05-17T09:04:24.925Z,73.12
2023-05-17T09:10:44.758Z,73.12
2023-05-17T09:17:07.800Z,78.75
2023-05-17T09:23:27.829Z,101.25
2023-05-17T09:29:52.063Z,73.12
2023-05-17T09:36:10.809Z,118.12
2023-05-17T09:42:33.787Z,123.75
2023-05-17T09:48:53.833Z,118.12
2023-05-17T09:55:16.751Z,135
2023-05-17T10:01:36.796Z,140.62
2023-05-17T10:07:59.744Z,123.75
2023-05-17T10:14:19.842Z,84.38
2023-05-17T10:20:42.777Z,101.25
2023-05-17T10:27:02.796Z,61.88
2023-05-17T10:33:25.844Z,118.12
2023-05-17T10:39:45.942Z,123.75
2023-05-17T10:46:08.760Z,118.12
2023-05-17T10:52:28.766Z,78.75
2023-05-17T10:58:51.843Z,56.25
2023-05-17T11:05:11.917Z,135
2023-05-17T11:11:34.789Z,151.88
2023-05-17T11:17:54.928Z,112.5
2023-05-17T11:24:18.952Z,146.25
2023-05-17T11:30:37.749Z,84.38
2023-05-17T11:37:00.846Z,61.88
2023-05-17T11:43:20.760Z,140.62
2023-05-17T11:49:43.854Z,135
2023-05-17T11:56:03.794Z,146.25
2023-05-17T12:02:26.821Z,157.5
2023-05-17T12:08:46.788Z,151.88
2023-05-17T12:15:09.788Z,84.38
2023-05-17T12:21:29.776Z,191.25
2023-05-17T12:27:52.755Z,90
2023-05-17T12:34:12.921Z,196.88
2023-05-17T12:40:35.784Z,78.75
2023-05-17T12:46:55.750Z,157.5
2023-05-17T12:53:18.820Z,90
2023-05-17T12:59:38.766Z,168.75
2023-05-17T13:06:01.745Z,168.75
2023-05-17T13:12:21.823Z,168.75
2023-05-17T13:18:44.800Z,174.38
2023-05-17T13:25:04.789Z,90
2023-05-17T13:31:27.775Z,78.75
2023-05-17T13:37:47.742Z,180
2023-05-17T13:44:10.772Z,185.62
2023-05-17T13:50:30.931Z,225
2023-05-17T13:56:53.770Z,90
2023-05-17T14:19:59.432Z,90
2023-05-17T14:26:18.741Z,230.62
2023-05-17T14:32:41.805Z,95.62
2023-05-17T14:39:01.766Z,78.75
2023-05-17T14:45:24.775Z,208.12
2023-05-17T14:51:44.784Z,213.75
2023-05-17T14:58:07.765Z,112.5
2023-05-17T15:04:27.833Z,101.25
2023-05-17T15:10:50.734Z,168.75
2023-05-17T15:17:10.763Z,123.75
2023-05-17T15:23:33.786Z,168.75
2023-05-17T15:29:53.731Z,174.38
2023-05-17T15:36:16.792Z,61.88
2023-05-17T15:42:36.739Z,73.12
2023-05-17T15:48:59.802Z,90
2023-05-17T15:55:19.835Z,84.38
2023-05-17T16:01:42.744Z,191.25
2023-05-17T16:08:02.790Z,208.12
2023-05-17T16:14:25.770Z,84.38
2023-05-17T16:20:45.731Z,78.75
2023-05-17T16:27:08.806Z,303.75
2023-05-17T16:33:28.841Z,298.12
2023-05-17T16:39:51.814Z,236.25
2023-05-17T16:46:11.754Z,146.25
2023-05-17T16:52:34.937Z,140.62
2023-05-17T16:58:57.053Z,146.25
2023-05-17T17:05:20.088Z,50.62
2023-05-17T17:11:39.864Z,270
2023-05-17T17:18:02.772Z,247.5
2023-05-17T17:24:22.866Z,191.25
2023-05-17T17:30:45.832Z,90
2023-05-17T17:37:05.753Z,78.75
2023-05-17T17:43:28.924Z,67.5
2023-05-17T17:49:48.782Z,50.62
2023-05-17T17:56:11.790Z,39.38
2023-05-17T18:02:31.877Z,28.12
2023-05-17T18:08:54.791Z,28.12
2023-05-17T18:15:14.795Z,22.5
2023-05-17T18:21:37.768Z,22.5
2023-05-17T18:27:57.831Z,16.88
2023-05-17T18:34:20.759Z,16.88
2023-05-17T18:40:40.766Z,11.25
2023-05-17T18:47:03.882Z,11.25
2023-05-17T18:53:23.758Z,5.62
2023-05-17T18:59:46.761Z,5.62
2023-05-17T19:06:06.855Z,0
2023-05-17T19:12:29.859Z,0
2023-05-17T19:18:49.870Z,0
2023-05-17T19:25:13.856Z,0
2023-05-17T19:49:11.752Z,0
2023-05-17T19:55:31.793Z,0
2023-05-17T20:01:54.829Z,0
2023-05-17T20:08:15.112Z,0
2023-05-17T20:14:37.777Z,0
2023-05-17T20:20:57.737Z,0
2023-05-17T20:27:20.864Z,0
2023-05-17T20:33:40.806Z,0
2023-05-17T20:40:03.779Z,0
2023-05-17T20:46:23.909Z,0
2023-05-17T20:52:46.818Z,0
2023-05-17T20:59:06.839Z,0
2023-05-17T21:05:29.853Z,0
2023-05-17T21:11:49.753Z,0
2023-05-17T21:18:12.745Z,0
2023-05-17T21:24:32.808Z,0
2023-05-17T21:30:55.798Z,0
2023-05-17T21:37:15.793Z,0
2023-05-17T21:43:38.826Z,0
2023-05-17T21:49:58.767Z,0
2023-05-17T21:56:21.815Z,0
2023-05-17T22:20:36.776Z,0
2023-05-17T22:26:56.734Z,0
2023-05-17T22:33:19.833Z,0
2023-05-17T22:39:39.877Z,0
2023-05-17T22:46:02.807Z,0
2023-05-17T22:52:22.769Z,0
2023-05-17T22:58:45.889Z,0
2023-05-17T23:05:05.743Z,0
2023-05-17T23:11:28.841Z,0
2023-05-17T23:17:48.805Z,0
2023-05-17T23:24:11.882Z,0
2023-05-17T23:30:31.973Z,0
2023-05-17T23:36:54.871Z,0
2023-05-17T23:43:14.764Z,0
2023-05-17T23:49:37.856Z,0
2023-05-17T23:55:57.840Z,0
